Time;durP1;ratioP1;P1;durP2;ratioP2;P2;SDS_P1;SDS_P2;PMS_P1;PMS_P2;Temp;Humidity;BMP_temperature;BMP_pressure;BME280_temperature;BME280_humidity;BME280_pressure;Samples;Min_cycle;Max_cycle;Signal;HPM_P1;HPM_P2
2024/01/22 00:00:27;;;;;;;8.18;4.38;;;;;;;;;;5058165;28;20047;-82
2024/01/22 00:02:53;;;;;;;10.90;4.55;;;;;;;;;;5059781;28;20041;-82
2024/01/22 00:05:19;;;;;;;8.27;4.28;;;;;;;;;;5060542;28;20486;-82
2024/01/22 00:07:45;;;;;;;9.50;4.00;;;;;;;;;;5052834;28;20052;-82
2024/01/22 00:10:11;;;;;;;10.85;4.50;;;;;;;;;;5061581;28;20115;-82
2024/01/22 00:12:37;;;;;;;15.38;4.90;;;;;;;;;;5062302;28;20048;-82
2024/01/22 00:15:03;;;;;;;11.50;5.20;;;;;;;;;;5062921;28;20041;-82
2024/01/22 00:17:29;;;;;;;10.93;4.72;;;;;;;;;;5061677;28;20055;-82
2024/01/22 00:19:55;;;;;;;10.02;4.38;;;;;;;;;;5060977;28;20041;-81
2024/01/22 00:22:21;;;;;;;11.35;4.05;;;;;;;;;;5047500;28;20375;-82
2024/01/22 00:24:47;;;;;;;10.32;4.43;;;;;;;;;;5062212;28;20495;-82
2024/01/22 00:27:13;;;;;;;10.38;4.75;;;;;;;;;;5058090;28;20128;-82
2024/01/22 00:29:39;;;;;;;8.75;3.88;;;;;;;;;;5046923;28;20053;-82
2024/01/22 00:32:06;;;;;;;9.30;4.43;;;;;;;;;;5061576;28;20372;-82
2024/01/22 00:34:32;;;;;;;9.07;4.65;;;;;;;;;;5061782;28;20426;-82
2024/01/22 00:36:58;;;;;;;9.02;4.18;;;;;;;;;;5061895;28;20491;-82
2024/01/22 00:39:24;;;;;;;9.73;4.30;;;;;;;;;;5057560;28;20525;-82
2024/01/22 00:41:50;;;;;;;9.07;4.38;;;;;;;;;;5057326;28;20394;-82
2024/01/22 00:44:16;;;;;;;12.55;3.92;;;;;;;;;;5058381;28;20041;-82
2024/01/22 00:46:42;;;;;;;8.68;3.92;;;;;;;;;;5060841;28;20055;-82
2024/01/22 00:49:08;;;;;;;10.52;3.90;;;;;;;;;;5058225;28;20095;-83
2024/01/22 00:51:34;;;;;;;9.77;4.53;;;;;;;;;;5061880;28;20037;-82
2024/01/22 00:54:00;;;;;;;10.77;4.30;;;;;;;;;;5061625;28;20049;-81
2024/01/22 00:56:26;;;;;;;13.18;4.40;;;;;;;;;;5060681;28;20509;-82
2024/01/22 00:58:52;;;;;;;7.15;3.75;;;;;;;;;;5061649;28;20076;-83
2024/01/22 01:01:18;;;;;;;8.50;3.63;;;;;;;;;;5060625;28;20052;-82
2024/01/22 01:03:44;;;;;;;11.23;3.85;;;;;;;;;;5076831;28;20041;-82
2024/01/22 01:06:10;;;;;;;9.10;3.85;;;;;;;;;;5059702;28;20071;-82
2024/01/22 01:08:36;;;;;;;7.60;3.70;;;;;;;;;;5060087;28;20064;-82
2024/01/22 01:11:03;;;;;;;11.02;4.35;;;;;;;;;;5058086;28;20110;-81
2024/01/22 01:13:29;;;;;;;8.38;3.35;;;;;;;;;;5059518;28;20052;-81
2024/01/22 01:15:55;;;;;;;10.75;4.25;;;;;;;;;;5061019;28;20045;-82
2024/01/22 01:18:21;;;;;;;8.65;4.25;;;;;;;;;;5061591;28;20098;-81
2024/01/22 01:20:47;;;;;;;11.02;4.28;;;;;;;;;;5061746;28;20052;-82
2024/01/22 01:23:13;;;;;;;8.70;3.95;;;;;;;;;;5062424;28;20056;-82
2024/01/22 01:25:40;;;;;;;9.23;3.95;;;;;;;;;;5061331;28;20049;-82
2024/01/22 01:28:07;;;;;;;9.50;4.05;;;;;;;;;;5060413;28;20060;-81
2024/01/22 01:30:33;;;;;;;11.40;3.75;;;;;;;;;;5059744;28;20071;-82
2024/01/22 01:32:59;;;;;;;8.95;4.07;;;;;;;;;;5060261;28;20106;-82
2024/01/22 01:35:25;;;;;;;9.52;3.97;;;;;;;;;;5066880;28;20595;-82
2024/01/22 01:37:52;;;;;;;7.70;3.47;;;;;;;;;;5059725;28;20435;-82
2024/01/22 01:40:18;;;;;;;9.65;3.63;;;;;;;;;;5061080;28;20051;-82
2024/01/22 01:42:45;;;;;;;8.98;4.20;;;;;;;;;;5058176;28;20037;-82
2024/01/22 01:45:15;;;;;;;7.90;3.78;;;;;;;;;;5059849;28;20053;-81
2024/01/22 01:47:50;;;;;;;10.32;3.95;;;;;;;;;;5059909;28;20045;-81
2024/01/22 01:50:17;;;;;;;7.38;3.58;;;;;;;;;;5059764;28;20053;-81
2024/01/22 01:52:44;;;;;;;8.70;3.83;;;;;;;;;;5059782;28;20055;-81
2024/01/22 01:55:12;;;;;;;8.50;3.85;;;;;;;;;;5058761;28;20048;-81
2024/01/22 01:57:39;;;;;;;7.38;4.13;;;;;;;;;;5054321;28;20049;-81
2024/01/22 02:00:12;;;;;;;10.25;4.10;;;;;;;;;;5041538;28;20079;-81
2024/01/22 02:02:39;;;;;;;7.60;3.58;;;;;;;;;;5057201;28;20041;-81
2024/01/22 02:05:05;;;;;;;7.85;3.50;;;;;;;;;;5057922;28;20406;-82
2024/01/22 02:07:31;;;;;;;8.02;3.65;;;;;;;;;;5052636;28;20371;-82
2024/01/22 02:09:57;;;;;;;13.00;4.05;;;;;;;;;;5049036;28;20411;-81
2024/01/22 02:12:26;;;;;;;7.13;3.28;;;;;;;;;;5051041;28;20441;-81
2024/01/22 02:14:52;;;;;;;10.80;4.32;;;;;;;;;;5057022;28;20044;-81
2024/01/22 02:17:18;;;;;;;10.02;4.22;;;;;;;;;;5057573;28;20088;-81
2024/01/22 02:19:44;;;;;;;9.13;3.95;;;;;;;;;;5057639;28;20119;-81
2024/01/22 02:22:11;;;;;;;7.88;3.75;;;;;;;;;;5057943;28;20053;-81
2024/01/22 02:24:37;;;;;;;9.25;3.72;;;;;;;;;;5058111;28;20048;-81
2024/01/22 02:27:03;;;;;;;10.48;4.15;;;;;;;;;;5055869;28;20440;-81
2024/01/22 02:29:29;;;;;;;9.85;4.18;;;;;;;;;;5073751;28;20474;-81
2024/01/22 02:31:55;;;;;;;9.88;4.30;;;;;;;;;;5058127;28;20038;-81
2024/01/22 02:34:22;;;;;;;8.68;4.32;;;;;;;;;;5057211;28;20049;-80
2024/01/22 02:36:48;;;;;;;10.68;4.00;;;;;;;;;;5076632;28;20044;-82
2024/01/22 02:39:14;;;;;;;6.82;3.83;;;;;;;;;;5062003;28;20041;-81
2024/01/22 02:41:46;;;;;;;7.93;3.90;;;;;;;;;;5055421;28;20041;-80
2024/01/22 02:44:12;;;;;;;7.40;3.97;;;;;;;;;;5053185;28;20045;-81
2024/01/22 02:46:38;;;;;;;7.72;3.72;;;;;;;;;;5052292;28;20044;-81
2024/01/22 02:49:04;;;;;;;7.78;3.67;;;;;;;;;;5053932;28;20122;-81
2024/01/22 02:51:30;;;;;;;9.00;3.88;;;;;;;;;;5053956;28;21162;-81
2024/01/22 02:53:56;;;;;;;12.10;4.20;;;;;;;;;;5046654;28;20138;-81
2024/01/22 02:56:24;;;;;;;9.68;3.90;;;;;;;;;;5061337;28;20533;-81
2024/01/22 02:58:50;;;;;;;8.30;3.83;;;;;;;;;;5061630;28;20463;-82
2024/01/22 03:01:16;;;;;;;9.70;3.75;;;;;;;;;;5061321;28;20102;-82
2024/01/22 03:03:42;;;;;;;8.52;3.80;;;;;;;;;;5060287;28;20036;-82
2024/01/22 03:06:08;;;;;;;6.07;3.20;;;;;;;;;;5056645;28;20053;-81
2024/01/22 03:08:34;;;;;;;8.30;3.78;;;;;;;;;;5058687;28;20048;-82
2024/01/22 03:11:01;;;;;;;11.32;4.35;;;;;;;;;;5060307;28;20510;-82
2024/01/22 03:13:27;;;;;;;9.13;3.65;;;;;;;;;;5062141;28;20041;-81
2024/01/22 03:15:53;;;;;;;8.63;3.55;;;;;;;;;;5061963;28;20044;-82
2024/01/22 03:18:19;;;;;;;8.27;3.60;;;;;;;;;;5061733;28;20076;-82
2024/01/22 03:20:45;;;;;;;7.95;3.70;;;;;;;;;;5060707;28;20033;-82
2024/01/22 03:23:11;;;;;;;6.82;3.35;;;;;;;;;;5060745;28;20059;-82
2024/01/22 03:25:37;;;;;;;8.77;3.55;;;;;;;;;;5061289;28;20041;-82
2024/01/22 03:28:03;;;;;;;8.00;3.17;;;;;;;;;;5062285;28;20052;-82
2024/01/22 03:30:29;;;;;;;8.20;3.60;;;;;;;;;;5061494;28;20103;-83
2024/01/22 03:32:55;;;;;;;9.63;3.80;;;;;;;;;;5076950;28;20052;-81
2024/01/22 03:35:21;;;;;;;7.25;3.63;;;;;;;;;;5059959;28;20041;-82
2024/01/22 03:37:48;;;;;;;7.18;3.78;;;;;;;;;;5045755;28;20047;-82
2024/01/22 03:40:14;;;;;;;8.13;3.80;;;;;;;;;;5044996;28;20041;-82
2024/01/22 03:42:40;;;;;;;6.55;3.35;;;;;;;;;;5060596;28;20052;-83
2024/01/22 03:45:07;;;;;;;7.20;3.40;;;;;;;;;;5060111;28;20045;-82
2024/01/22 03:47:33;;;;;;;7.50;3.60;;;;;;;;;;5060604;28;20044;-82
2024/01/22 03:50:00;;;;;;;7.05;3.03;;;;;;;;;;5076463;28;20052;-82
2024/01/22 03:52:26;;;;;;;9.23;3.47;;;;;;;;;;5055175;28;20486;-82
2024/01/22 03:54:52;;;;;;;8.30;3.58;;;;;;;;;;5060331;28;20083;-82
2024/01/22 03:57:18;;;;;;;9.40;3.50;;;;;;;;;;5059849;28;20403;-82
2024/01/22 03:59:46;;;;;;;6.50;3.40;;;;;;;;;;5050033;28;20033;-82
2024/01/22 04:02:12;;;;;;;7.63;3.58;;;;;;;;;;5060161;28;20080;-83
2024/01/22 04:04:38;;;;;;;7.50;3.20;;;;;;;;;;5059708;28;20052;-82
2024/01/22 04:07:05;;;;;;;7.63;3.30;;;;;;;;;;5058645;28;20510;-82
2024/01/22 04:09:31;;;;;;;7.65;2.97;;;;;;;;;;5053221;28;20054;-81
2024/01/22 04:11:57;;;;;;;6.05;2.92;;;;;;;;;;5059022;28;20052;-82
2024/01/22 04:14:23;;;;;;;7.82;2.53;;;;;;;;;;5058661;28;20049;-82
2024/01/22 04:16:50;;;;;;;7.95;3.33;;;;;;;;;;5060162;28;20445;-82
2024/01/22 04:19:16;;;;;;;7.15;3.17;;;;;;;;;;5060079;28;20387;-82
2024/01/22 04:21:48;;;;;;;5.63;2.97;;;;;;;;;;5047042;28;20041;-82
2024/01/22 04:24:14;;;;;;;7.82;3.30;;;;;;;;;;5056447;28;20102;-82
2024/01/22 04:26:40;;;;;;;6.82;2.92;;;;;;;;;;5056022;28;20048;-82
2024/01/22 04:29:07;;;;;;;6.20;2.95;;;;;;;;;;5060640;28;20056;-82
2024/01/22 04:31:33;;;;;;;8.93;3.38;;;;;;;;;;5059468;28;20541;-81
2024/01/22 04:33:59;;;;;;;6.38;3.28;;;;;;;;;;5058200;28;20041;-82
2024/01/22 04:36:25;;;;;;;6.65;3.05;;;;;;;;;;5060090;28;20040;-82
2024/01/22 04:38:51;;;;;;;9.05;3.10;;;;;;;;;;5047749;28;20048;-81
2024/01/22 04:41:17;;;;;;;5.63;3.08;;;;;;;;;;5052518;28;20045;-81
2024/01/22 04:43:46;;;;;;;6.95;3.05;;;;;;;;;;5057162;28;20052;-81
2024/01/22 04:46:12;;;;;;;7.75;2.80;;;;;;;;;;5058343;28;20071;-82
2024/01/22 04:48:39;;;;;;;7.82;3.10;;;;;;;;;;5055751;28;20478;-81
2024/01/22 04:51:05;;;;;;;6.07;3.17;;;;;;;;;;5058429;28;20486;-81
2024/01/22 04:53:31;;;;;;;5.28;3.08;;;;;;;;;;5040838;28;20084;-81
2024/01/22 04:55:57;;;;;;;5.65;3.08;;;;;;;;;;5045221;28;20045;-81
2024/01/22 04:58:23;;;;;;;6.13;3.03;;;;;;;;;;5054795;28;20092;-81
2024/01/22 05:00:49;;;;;;;7.47;3.22;;;;;;;;;;5059706;28;20045;-81
2024/01/22 05:03:15;;;;;;;5.75;2.72;;;;;;;;;;5058912;28;20044;-82
2024/01/22 05:05:41;;;;;;;5.40;2.65;;;;;;;;;;5057793;28;20051;-81
2024/01/22 05:08:07;;;;;;;5.78;2.63;;;;;;;;;;5050441;28;20049;-81
2024/01/22 05:10:33;;;;;;;5.22;2.65;;;;;;;;;;5059074;28;20048;-81
2024/01/22 05:12:59;;;;;;;4.78;2.60;;;;;;;;;;5060270;28;20072;-82
2024/01/22 05:15:25;;;;;;;5.85;2.80;;;;;;;;;;5055925;28;20045;-81
2024/01/22 05:17:52;;;;;;;6.15;2.40;;;;;;;;;;5051506;28;20056;-82
2024/01/22 05:20:18;;;;;;;4.70;2.50;;;;;;;;;;5050018;28;20045;-82
2024/01/22 05:22:45;;;;;;;5.28;2.15;;;;;;;;;;5054865;28;20046;-81
2024/01/22 05:25:11;;;;;;;5.70;2.47;;;;;;;;;;5054423;28;20099;-81
2024/01/22 05:27:37;;;;;;;5.80;2.38;;;;;;;;;;5059620;28;20052;-81
2024/01/22 05:30:04;;;;;;;5.28;2.10;;;;;;;;;;5056398;28;20049;-82
2024/01/22 05:32:32;;;;;;;5.50;2.50;;;;;;;;;;5038437;28;20049;-82
2024/01/22 05:34:58;;;;;;;6.32;2.60;;;;;;;;;;5050487;28;20071;-82
2024/01/22 05:37:24;;;;;;;5.60;2.22;;;;;;;;;;5057801;28;20044;-81
2024/01/22 05:39:50;;;;;;;4.63;2.30;;;;;;;;;;5058178;28;20410;-82
2024/01/22 05:42:16;;;;;;;4.35;1.88;;;;;;;;;;5058625;28;20502;-82
2024/01/22 05:44:42;;;;;;;4.93;2.10;;;;;;;;;;5058313;28;20115;-82
2024/01/22 05:47:08;;;;;;;6.03;2.17;;;;;;;;;;5056257;28;20094;-82
2024/01/22 05:49:34;;;;;;;5.60;2.05;;;;;;;;;;5057990;28;20045;-82
2024/01/22 05:52:00;;;;;;;4.35;2.10;;;;;;;;;;5056537;28;20049;-82
2024/01/22 05:54:27;;;;;;;5.50;2.28;;;;;;;;;;5054184;28;20106;-82
2024/01/22 05:56:53;;;;;;;6.00;1.92;;;;;;;;;;5055986;28;20037;-81
2024/01/22 05:59:20;;;;;;;5.18;2.45;;;;;;;;;;5055713;28;20052;-82
2024/01/22 06:01:46;;;;;;;4.70;2.03;;;;;;;;;;5048852;28;20037;-81
2024/01/22 06:04:12;;;;;;;6.20;2.22;;;;;;;;;;5057877;28;20048;-82
2024/01/22 06:06:38;;;;;;;5.28;2.00;;;;;;;;;;5056458;28;20049;-82
2024/01/22 06:09:04;;;;;;;4.65;2.00;;;;;;;;;;5054094;28;20611;-81
2024/01/22 06:11:30;;;;;;;5.65;2.40;;;;;;;;;;5056539;28;20091;-81
2024/01/22 06:13:57;;;;;;;5.68;2.10;;;;;;;;;;5056461;28;20049;-81
2024/01/22 06:16:23;;;;;;;5.60;1.80;;;;;;;;;;5070574;28;20057;-81
2024/01/22 06:18:49;;;;;;;6.65;2.13;;;;;;;;;;5057069;28;20502;-81
2024/01/22 06:21:15;;;;;;;4.90;1.90;;;;;;;;;;5056998;28;20087;-81
2024/01/22 06:23:41;;;;;;;5.18;2.20;;;;;;;;;;5059964;28;20093;-82
2024/01/22 06:26:10;;;;;;;7.70;2.60;;;;;;;;;;5057006;28;20140;-81
2024/01/22 06:28:38;;;;;;;5.65;2.10;;;;;;;;;;5062504;28;20107;-82
2024/01/22 06:31:04;;;;;;;6.57;2.55;;;;;;;;;;5061032;28;20045;-82
2024/01/22 06:33:30;;;;;;;6.82;2.40;;;;;;;;;;5062453;28;20048;-82
2024/01/22 06:35:56;;;;;;;5.38;2.20;;;;;;;;;;5048922;28;20052;-81
2024/01/22 06:38:22;;;;;;;7.05;2.30;;;;;;;;;;5054660;28;20049;-81
2024/01/22 06:40:48;;;;;;;5.55;2.15;;;;;;;;;;5064143;28;20095;-81
2024/01/22 06:43:14;;;;;;;6.80;2.40;;;;;;;;;;5064857;28;20041;-82
2024/01/22 06:45:40;;;;;;;6.15;2.10;;;;;;;;;;5064660;28;20087;-81
2024/01/22 06:48:11;;;;;;;5.72;2.53;;;;;;;;;;5065031;28;20044;-82
2024/01/22 06:50:37;;;;;;;5.90;1.95;;;;;;;;;;5064262;28;20056;-82
2024/01/22 06:53:04;;;;;;;4.97;2.13;;;;;;;;;;5053055;28;20048;-82
2024/01/22 06:55:30;;;;;;;6.93;1.90;;;;;;;;;;5063503;28;20088;-82
2024/01/22 06:57:56;;;;;;;6.38;2.08;;;;;;;;;;5060434;28;20064;-82
2024/01/22 07:00:22;;;;;;;4.43;1.55;;;;;;;;;;5066459;28;20045;-82
2024/01/22 07:02:49;;;;;;;4.88;1.83;;;;;;;;;;5065319;28;20033;-82
2024/01/22 07:05:16;;;;;;;4.50;1.80;;;;;;;;;;5059174;28;20106;-82
2024/01/22 07:07:42;;;;;;;7.22;2.58;;;;;;;;;;5062182;28;20033;-83
2024/01/22 07:10:08;;;;;;;6.55;1.92;;;;;;;;;;5054802;28;20116;-83
2024/01/22 07:12:35;;;;;;;9.13;2.10;;;;;;;;;;5065837;28;20053;-83
2024/01/22 07:15:01;;;;;;;8.75;2.13;;;;;;;;;;5066450;28;20372;-83
2024/01/22 07:17:28;;;;;;;10.18;2.60;;;;;;;;;;5066044;28;20059;-83
2024/01/22 07:19:55;;;;;;;9.88;2.63;;;;;;;;;;5064657;28;20045;-82
2024/01/22 07:22:21;;;;;;;14.43;2.60;;;;;;;;;;5069405;28;20123;-82
2024/01/22 07:24:47;;;;;;;12.23;2.50;;;;;;;;;;5086477;28;20494;-83
2024/01/22 07:27:13;;;;;;;13.00;2.97;;;;;;;;;;5067370;28;20045;-82
2024/01/22 07:29:39;;;;;;;12.20;2.40;;;;;;;;;;5067308;28;20047;-82
2024/01/22 07:32:06;;;;;;;17.00;2.65;;;;;;;;;;5046319;28;20052;-82
2024/01/22 07:34:32;;;;;;;15.63;2.70;;;;;;;;;;5064217;28;20037;-82
2024/01/22 07:36:58;;;;;;;13.30;3.03;;;;;;;;;;5056872;28;20068;-82
2024/01/22 07:39:24;;;;;;;16.55;2.35;;;;;;;;;;5076444;28;20049;-82
2024/01/22 07:41:50;;;;;;;21.70;3.72;;;;;;;;;;5063182;28;20044;-83
2024/01/22 07:44:17;;;;;;;19.23;2.97;;;;;;;;;;5062716;28;20044;-82
2024/01/22 07:46:46;;;;;;;16.00;3.15;;;;;;;;;;5062461;28;20052;-82
2024/01/22 07:49:12;;;;;;;14.65;2.85;;;;;;;;;;5060295;28;20041;-82
2024/01/22 07:51:38;;;;;;;18.33;3.15;;;;;;;;;;5060869;28;20052;-82
2024/01/22 07:54:05;;;;;;;17.60;3.30;;;;;;;;;;5059781;28;20045;-82
2024/01/22 07:56:31;;;;;;;17.00;3.15;;;;;;;;;;5060787;28;20045;-82
2024/01/22 07:58:57;;;;;;;20.83;3.80;;;;;;;;;;5058451;28;20083;-82
2024/01/22 08:01:24;;;;;;;20.08;3.50;;;;;;;;;;5055939;28;20099;-82
2024/01/22 08:03:50;;;;;;;18.38;3.33;;;;;;;;;;5054774;28;20072;-82
2024/01/22 08:06:16;;;;;;;20.75;4.28;;;;;;;;;;5062664;28;20078;-82
2024/01/22 08:08:42;;;;;;;18.15;2.83;;;;;;;;;;5061558;28;20041;-82
2024/01/22 08:11:09;;;;;;;20.88;3.13;;;;;;;;;;5061852;28;20041;-82
2024/01/22 08:13:35;;;;;;;16.98;3.53;;;;;;;;;;5059036;28;20041;-82
2024/01/22 08:16:03;;;;;;;20.48;3.55;;;;;;;;;;5060762;28;20042;-82
2024/01/22 08:18:29;;;;;;;19.65;3.20;;;;;;;;;;5059913;28;20053;-81
2024/01/22 08:20:55;;;;;;;18.63;3.47;;;;;;;;;;5058106;28;20045;-81
2024/01/22 08:23:21;;;;;;;16.25;3.20;;;;;;;;;;5059644;28;20033;-81
2024/01/22 08:25:47;;;;;;;16.65;3.35;;;;;;;;;;5058374;28;20056;-81
2024/01/22 08:28:13;;;;;;;16.65;2.80;;;;;;;;;;5057968;28;20045;-82
2024/01/22 08:30:39;;;;;;;15.75;2.85;;;;;;;;;;5057799;28;20115;-81
2024/01/22 08:33:06;;;;;;;15.85;3.08;;;;;;;;;;5059949;28;20486;-82
2024/01/22 08:35:32;;;;;;;18.90;3.85;;;;;;;;;;5056795;28;20068;-81
2024/01/22 08:37:58;;;;;;;14.88;2.67;;;;;;;;;;5060508;28;20048;-82
2024/01/22 08:40:24;;;;;;;17.10;3.00;;;;;;;;;;5062321;28;20093;-82
2024/01/22 08:42:51;;;;;;;13.70;2.58;;;;;;;;;;5058754;28;20051;-81
2024/01/22 08:45:17;;;;;;;12.85;2.85;;;;;;;;;;5049727;28;20041;-82
2024/01/22 08:47:46;;;;;;;15.00;2.80;;;;;;;;;;5058917;28;20494;-82
2024/01/22 08:50:22;;;;;;;15.65;3.00;;;;;;;;;;5051023;28;20406;-82
2024/01/22 08:52:49;;;;;;;14.20;2.80;;;;;;;;;;5054852;28;20361;-82
2024/01/22 08:55:16;;;;;;;12.32;2.55;;;;;;;;;;5082069;28;20068;-82
2024/01/22 08:57:43;;;;;;;14.27;2.67;;;;;;;;;;5070293;28;20053;-82
2024/01/22 09:00:14;;;;;;;12.77;2.78;;;;;;;;;;5060193;28;20052;-82
2024/01/22 09:02:40;;;;;;;16.35;2.90;;;;;;;;;;5042398;28;20072;-81
2024/01/22 09:05:07;;;;;;;10.35;2.25;;;;;;;;;;5058854;28;20553;-82
2024/01/22 09:07:34;;;;;;;9.32;2.25;;;;;;;;;;5061287;28;20049;-82
2024/01/22 09:10:02;;;;;;;11.93;2.92;;;;;;;;;;5062200;28;20045;-82
2024/01/22 09:12:28;;;;;;;14.27;2.00;;;;;;;;;;5052679;28;20120;-82
2024/01/22 09:14:54;;;;;;;12.73;2.70;;;;;;;;;;5042151;28;20487;-82
2024/01/22 09:17:20;;;;;;;13.98;2.30;;;;;;;;;;5042002;28;20087;-82
2024/01/22 09:19:46;;;;;;;16.13;2.80;;;;;;;;;;5041586;28;20098;-83
2024/01/22 09:22:12;;;;;;;16.00;3.15;;;;;;;;;;5041827;28;20167;-83
2024/01/22 09:24:38;;;;;;;15.45;2.70;;;;;;;;;;5053185;28;20049;-83
2024/01/22 09:27:04;;;;;;;12.70;2.65;;;;;;;;;;5069433;28;20047;-82
2024/01/22 09:29:30;;;;;;;14.40;2.90;;;;;;;;;;5064896;28;20060;-82
2024/01/22 09:31:56;;;;;;;17.58;3.40;;;;;;;;;;5060618;28;20048;-83
2024/01/22 09:34:22;;;;;;;21.77;3.72;;;;;;;;;;5060387;28;20059;-83
2024/01/22 09:36:49;;;;;;;24.70;4.68;;;;;;;;;;5057828;28;20045;-82
2024/01/22 09:39:15;;;;;;;23.02;4.20;;;;;;;;;;5055165;28;20048;-82
2024/01/22 09:41:41;;;;;;;25.25;4.47;;;;;;;;;;5058157;28;20048;-82
2024/01/22 09:44:07;;;;;;;21.77;4.47;;;;;;;;;;5059248;28;20033;-82
2024/01/22 09:46:34;;;;;;;28.88;5.03;;;;;;;;;;5060333;28;20041;-82
2024/01/22 09:49:01;;;;;;;26.88;4.50;;;;;;;;;;5063994;28;20475;-83
2024/01/22 09:51:28;;;;;;;34.55;6.28;;;;;;;;;;5060310;28;20091;-83
2024/01/22 09:53:56;;;;;;;29.50;5.45;;;;;;;;;;5044147;28;20041;-82
2024/01/22 09:56:23;;;;;;;32.63;5.68;;;;;;;;;;5069387;28;20087;-82
2024/01/22 09:58:51;;;;;;;30.27;6.05;;;;;;;;;;5056924;28;20481;-84
2024/01/22 10:01:17;;;;;;;36.10;6.82;;;;;;;;;;5058940;28;20045;-83
2024/01/22 10:03:44;;;;;;;33.88;6.30;;;;;;;;;;5059773;28;20132;-83
2024/01/22 10:06:11;;;;;;;38.75;7.35;;;;;;;;;;5058680;28;20052;-83
2024/01/22 10:08:37;;;;;;;47.42;7.75;;;;;;;;;;5057578;28;20045;-82
2024/01/22 10:11:03;;;;;;;45.30;7.57;;;;;;;;;;5056944;28;20152;-82
2024/01/22 10:13:29;;;;;;;46.15;7.30;;;;;;;;;;5056379;28;20478;-82
2024/01/22 10:15:56;;;;;;;40.95;7.78;;;;;;;;;;5046998;28;20182;-82
2024/01/22 10:18:22;;;;;;;50.13;8.07;;;;;;;;;;5058497;28;20386;-82
2024/01/22 10:20:50;;;;;;;44.00;7.80;;;;;;;;;;5057655;28;20045;-83
2024/01/22 10:23:16;;;;;;;39.60;7.28;;;;;;;;;;5056483;28;20543;-83
2024/01/22 10:25:42;;;;;;;45.35;7.13;;;;;;;;;;5057464;28;20117;-83
2024/01/22 10:28:14;;;;;;;46.25;8.18;;;;;;;;;;5054394;28;20056;-83
2024/01/22 10:30:41;;;;;;;45.55;7.97;;;;;;;;;;5052082;28;20045;-83
2024/01/22 10:33:11;;;;;;;39.60;7.90;;;;;;;;;;5054788;28;20045;-83
2024/01/22 10:35:38;;;;;;;42.78;7.50;;;;;;;;;;5058569;28;20481;-83
2024/01/22 10:38:08;;;;;;;43.00;7.60;;;;;;;;;;5073415;28;20037;-83
2024/01/22 10:40:34;;;;;;;45.60;8.90;;;;;;;;;;5058131;28;20056;-83
2024/01/22 10:43:17;;;;;;;48.42;7.97;;;;;;;;;;5059002;28;20044;-82
2024/01/22 10:45:46;;;;;;;46.38;7.88;;;;;;;;;;5055201;28;20053;-82
2024/01/22 10:48:12;;;;;;;44.53;7.55;;;;;;;;;;5057083;28;20083;-82
2024/01/22 10:50:42;;;;;;;48.72;7.78;;;;;;;;;;5073080;28;20040;-82
2024/01/22 10:53:11;;;;;;;49.25;7.65;;;;;;;;;;5055860;28;20052;-81
2024/01/22 10:55:38;;;;;;;49.35;8.20;;;;;;;;;;5045220;28;20376;-82
2024/01/22 10:58:08;;;;;;;51.63;8.82;;;;;;;;;;5067040;28;20061;-81
2024/01/22 11:00:40;;;;;;;45.63;7.68;;;;;;;;;;5062561;28;20049;-81
2024/01/22 11:03:06;;;;;;;;;;;;;;;;;;5060201;28;20049;-81
2024/01/22 11:05:33;;;;;;;38.75;7.03;;;;;;;;;;5060362;28;19921;-82
2024/01/22 11:08:00;;;;;;;43.38;7.15;;;;;;;;;;5060342;28;20045;-82
2024/01/22 11:10:26;;;;;;;47.63;8.27;;;;;;;;;;5064422;28;20069;-82
2024/01/22 11:12:54;;;;;;;43.83;7.80;;;;;;;;;;5070322;28;20044;-82
2024/01/22 11:15:20;;;;;;;41.75;7.72;;;;;;;;;;5067525;28;20049;-82
2024/01/22 11:17:47;;;;;;;43.85;7.30;;;;;;;;;;5058032;28;20033;-82
2024/01/22 11:20:14;;;;;;;45.55;8.05;;;;;;;;;;5062237;28;20049;-81
2024/01/22 11:22:41;;;;;;;45.28;7.38;;;;;;;;;;5064862;28;20047;-81
2024/01/22 11:25:12;;;;;;;38.90;7.03;;;;;;;;;;5073579;28;20043;-82
2024/01/22 11:27:41;;;;;;;;;;;;;;;;;;5061690;28;20056;-82
2024/01/22 11:30:25;;;;;;;38.65;6.50;;;;;;;;;;5050784;28;19984;-83
2024/01/22 11:32:51;;;;;;;37.53;6.72;;;;;;;;;;5064136;28;20045;-81
2024/01/22 11:35:40;;;;;;;46.13;7.63;;;;;;;;;;5070508;28;20052;-82
2024/01/22 11:38:11;;;;;;;43.28;7.60;;;;;;;;;;5059455;28;20052;-82
2024/01/22 11:40:43;;;;;;;42.15;7.03;;;;;;;;;;5062285;28;20048;-81
2024/01/22 11:43:09;;;;;;;48.50;7.57;;;;;;;;;;5058744;28;20037;-81
2024/01/22 11:45:35;;;;;;;41.10;6.97;;;;;;;;;;5073432;28;20583;-80
2024/01/22 11:48:01;;;;;;;40.40;7.05;;;;;;;;;;5055406;28;20048;-81
2024/01/22 11:50:27;;;;;;;39.83;7.38;;;;;;;;;;5058108;28;20044;-81
2024/01/22 11:53:00;;;;;;;37.88;6.75;;;;;;;;;;5046573;28;20045;-81
2024/01/22 11:55:26;;;;;;;42.67;7.07;;;;;;;;;;5054412;28;20056;-80
2024/01/22 11:57:52;;;;;;;39.58;7.15;;;;;;;;;;5057115;28;20049;-81
2024/01/22 12:00:22;;;;;;;43.15;6.95;;;;;;;;;;5056170;28;20140;-81
2024/01/22 12:02:50;;;;;;;34.03;6.32;;;;;;;;;;5054712;28;20132;-81
2024/01/22 12:05:17;;;;;;;39.78;6.85;;;;;;;;;;5057804;28;20056;-81
2024/01/22 12:07:44;;;;;;;32.60;6.55;;;;;;;;;;5053202;28;20040;-81
2024/01/22 12:10:22;;;;;;;36.47;5.93;;;;;;;;;;5056756;28;20049;-81
2024/01/22 12:12:53;;;;;;;36.90;6.75;;;;;;;;;;5045795;28;20082;-81
2024/01/22 12:15:20;;;;;;;28.15;6.10;;;;;;;;;;5056858;28;20047;-80
2024/01/22 12:17:46;;;;;;;32.92;5.18;;;;;;;;;;5057505;28;20045;-80
2024/01/22 12:20:12;;;;;;;37.63;6.72;;;;;;;;;;5060132;28;20041;-80
2024/01/22 12:22:38;;;;;;;31.30;6.47;;;;;;;;;;5043171;28;20049;-80
2024/01/22 12:25:06;;;;;;;28.67;4.80;;;;;;;;;;5067666;28;20044;-81
2024/01/22 12:27:32;;;;;;;33.10;5.68;;;;;;;;;;5057298;28;20077;-80
2024/01/22 12:30:01;;;;;;;36.67;5.47;;;;;;;;;;5055585;28;20527;-80
2024/01/22 12:32:27;;;;;;;34.38;5.97;;;;;;;;;;5055814;28;20088;-81
2024/01/22 12:35:00;;;;;;;34.63;5.57;;;;;;;;;;5057066;28;20036;-81
2024/01/22 12:37:30;;;;;;;24.58;4.85;;;;;;;;;;5068944;28;20060;-80
2024/01/22 12:40:16;;;;;;;30.08;5.00;;;;;;;;;;5057727;28;20124;-80
2024/01/22 12:42:43;;;;;;;31.58;5.63;;;;;;;;;;5053895;28;20052;-81
2024/01/22 12:45:11;;;;;;;28.75;5.25;;;;;;;;;;5059482;28;20051;-81
2024/01/22 12:47:37;;;;;;;33.97;6.00;;;;;;;;;;5078061;28;20413;-80
2024/01/22 12:50:04;;;;;;;38.80;6.40;;;;;;;;;;5061979;28;20044;-80
2024/01/22 12:52:30;;;;;;;28.27;5.28;;;;;;;;;;5054880;28;20056;-80
2024/01/22 12:54:56;;;;;;;24.02;4.63;;;;;;;;;;5056480;28;20057;-81
2024/01/22 12:57:22;;;;;;;25.45;5.07;;;;;;;;;;5056987;28;20082;-81
2024/01/22 12:59:48;;;;;;;30.88;5.47;;;;;;;;;;5062956;28;20060;-81
2024/01/22 13:02:15;;;;;;;34.08;5.50;;;;;;;;;;5061410;28;20044;-81
2024/01/22 13:04:42;;;;;;;23.25;4.45;;;;;;;;;;5053976;28;20120;-80
2024/01/22 13:07:08;;;;;;;24.48;4.30;;;;;;;;;;5057493;28;20124;-81
2024/01/22 13:09:34;;;;;;;27.27;4.70;;;;;;;;;;5053023;28;20044;-81
2024/01/22 13:12:01;;;;;;;23.30;4.20;;;;;;;;;;5055342;28;20060;-80
2024/01/22 13:14:28;;;;;;;24.58;4.78;;;;;;;;;;5047253;28;20555;-80
2024/01/22 13:16:54;;;;;;;31.58;5.75;;;;;;;;;;5054186;28;20036;-80
2024/01/22 13:19:20;;;;;;;32.85;5.95;;;;;;;;;;5057085;28;20044;-80
2024/01/22 13:21:46;;;;;;;27.85;5.47;;;;;;;;;;5072990;28;20074;-81
2024/01/22 13:24:12;;;;;;;22.35;4.40;;;;;;;;;;5052256;28;20045;-80
2024/01/22 13:26:38;;;;;;;31.83;5.28;;;;;;;;;;5052955;28;20248;-81
2024/01/22 13:29:04;;;;;;;26.85;4.43;;;;;;;;;;5053687;28;20060;-81
2024/01/22 13:31:30;;;;;;;30.52;4.88;;;;;;;;;;5058776;28;20051;-81
2024/01/22 13:33:57;;;;;;;25.52;5.35;;;;;;;;;;5070997;28;20045;-80
2024/01/22 13:36:23;;;;;;;26.02;4.45;;;;;;;;;;5056044;28;20476;-80
2024/01/22 13:38:49;;;;;;;27.35;4.63;;;;;;;;;;5051421;28;20430;-80
2024/01/22 13:41:16;;;;;;;28.52;4.75;;;;;;;;;;5056504;28;20049;-80
2024/01/22 13:43:42;;;;;;;30.20;5.70;;;;;;;;;;5041947;28;20048;-80
2024/01/22 13:46:11;;;;;;;30.48;5.32;;;;;;;;;;5055518;28;20109;-80
2024/01/22 13:48:37;;;;;;;30.30;5.15;;;;;;;;;;5071158;28;20516;-80
2024/01/22 13:51:03;;;;;;;29.08;4.68;;;;;;;;;;5055576;28;20128;-80
2024/01/22 13:53:30;;;;;;;34.60;5.63;;;;;;;;;;5050761;28;20037;-80
2024/01/22 13:55:56;;;;;;;26.90;5.00;;;;;;;;;;5050400;28;20441;-80
2024/01/22 13:58:22;;;;;;;29.05;4.72;;;;;;;;;;5051263;28;20506;-80
2024/01/22 14:00:48;;;;;;;31.63;5.25;;;;;;;;;;5043631;28;20045;-80
2024/01/22 14:03:15;;;;;;;34.38;5.35;;;;;;;;;;5057350;28;20114;-80
2024/01/22 14:05:42;;;;;;;27.48;5.13;;;;;;;;;;5047682;28;20163;-80
2024/01/22 14:08:09;;;;;;;30.27;5.80;;;;;;;;;;5048224;28;20072;-80
2024/01/22 14:10:35;;;;;;;26.90;4.63;;;;;;;;;;5052380;28;20049;-80
2024/01/22 14:13:01;;;;;;;34.65;5.75;;;;;;;;;;5059234;28;20056;-80
2024/01/22 14:15:27;;;;;;;29.63;5.13;;;;;;;;;;5054891;28;20048;-80
2024/01/22 14:17:54;;;;;;;33.53;5.72;;;;;;;;;;5056378;28;20060;-80
2024/01/22 14:20:20;;;;;;;27.15;5.38;;;;;;;;;;5056458;28;20052;-80
2024/01/22 14:22:48;;;;;;;32.83;5.63;;;;;;;;;;5055398;28;20446;-80
2024/01/22 14:25:14;;;;;;;32.47;5.65;;;;;;;;;;5052907;28;20041;-80
2024/01/22 14:27:40;;;;;;;26.13;5.22;;;;;;;;;;5048211;28;20045;-81
2024/01/22 14:30:11;;;;;;;30.38;6.82;;;;;;;;;;5056218;28;20045;-80
2024/01/22 14:32:37;;;;;;;29.00;4.53;;;;;;;;;;5056528;28;20204;-80